Aeroporto :
LOGIN :

Iscrizione | Disclaimer

   EN    FR    IT 

 










Sommario :    VFR   VFR Marginale   IFR   IFR Intensivo   IFR Molto Intensivo
Visibilità : 
Base nubi : 
>= 8 km
>= 3000ft
5 / 8 km
1000 / 3000 ft
1500m / 5 km
500 / 1000 ft
800 / 1500m
200 / 500 ft
< 800m
< 200 ft
Simboli :   Temporali  Nebbia  Neve Forte  Precipitazioni Forti  Vento > 20 kt
SIGMETs :   Varie  Temporali  Ghiacco  Turbolenza  Onda orograficha  Ceneri Vulcaniche






- Altitudine del aeroporto : 405 ft
- Codice IATA : ODH


EGVO - RAF Odiham

ULTIMO METAR :
  • 230050Z AUTO 06008KT 9999 FEW080/// BKN110/// 07/06 Q0990

METARs OBSOLETI :
  • 222350Z AUTO 06008KT 9999 FEW050/// OVC110/// 07/06 Q0990
  • 222250Z AUTO 06011KT 9999 SCT012/// BKN100/// 07/06 Q0990

TAF AMD TAF EGVO
Valido dal 22 a 15 ore il 23 a 03 ore UTC


221455Z 2215/2303 12010KT 9999 BKN045
PROB30
TEMPO 2215/2217 SCT008
PROB30
TEMPO 2217/2221 11015G25KT
PROB40 2219/2223 BKN009
BECMG 2223/2301 -RA BKN009
PROB30
TEMPO 2223/2303 4000 -RADZ



MetMap, La meteo Aeronautica in un colpo d'occhio ! - Copyright ORBIFLY Dicembre 2007 - Disclaimer

ORBIFLY MET'MAP TEAM :

Programmazione e sviluppo : Alexandra Zaïnal
Concezione e sviluppo : Baudouin d'Aumeries
Co-Programmazione e sviluppo : Marc-Olivier Méhu
Supporto tecnico e logistico : Manuel Goepfert
Aiuto per la traduzione : Arnaldo La Scala

Contatto : metmap@orbifly.com




FONTI E CREDITI :

   NOAA